createdAt,value
2022-08-19T00:01:41.427Z,54.20
2022-08-19T00:04:47.618Z,54.24
2022-08-19T00:07:51.903Z,54.00
2022-08-19T00:10:55.581Z,54.20
2022-08-19T00:14:00.663Z,54.08
2022-08-19T00:17:05.118Z,54.07
2022-08-19T00:20:11.719Z,54.14
2022-08-19T00:23:16.083Z,53.93
2022-08-19T00:26:19.785Z,54.46
2022-08-19T00:29:26.373Z,54.26
2022-08-19T00:32:30.063Z,54.15
2022-08-19T00:35:34.567Z,54.16
2022-08-19T00:38:40.265Z,54.08
2022-08-19T00:41:47.677Z,54.22
2022-08-19T00:44:53.168Z,54.14
2022-08-19T00:47:57.067Z,54.30
2022-08-19T00:51:01.095Z,54.33
2022-08-19T00:54:05.947Z,54.05
2022-08-19T00:57:14.310Z,54.26
2022-08-19T01:00:21.224Z,54.12
2022-08-19T01:03:25.202Z,53.92
2022-08-19T01:06:29.155Z,54.05
2022-08-19T01:09:33.570Z,54.02
2022-08-19T01:12:37.525Z,54.03
2022-08-19T01:15:46.795Z,54.16
2022-08-19T01:18:51.179Z,54.17
2022-08-19T01:22:14.030Z,54.25
2022-08-19T01:25:22.953Z,54.19
2022-08-19T01:28:34.300Z,54.14
2022-08-19T01:31:44.111Z,54.07
2022-08-19T01:34:48.199Z,54.14
2022-08-19T01:37:54.463Z,54.06
2022-08-19T01:40:59.625Z,53.93
2022-08-19T01:44:18.274Z,54.38
2022-08-19T01:47:22.676Z,54.25
2022-08-19T01:50:26.801Z,53.98
2022-08-19T01:53:33.718Z,54.29
2022-08-19T01:56:39.323Z,54.24
2022-08-19T01:59:44.948Z,54.20
2022-08-19T02:02:48.876Z,54.24
2022-08-19T02:05:56.912Z,53.96
2022-08-19T02:09:01.166Z,54.39
2022-08-19T02:12:07.285Z,54.26
2022-08-19T02:15:12.415Z,54.22
2022-08-19T02:18:16.641Z,54.13
2022-08-19T02:21:22.042Z,54.18
2022-08-19T02:24:25.742Z,54.44
2022-08-19T02:27:30.767Z,54.01
2022-08-19T02:30:34.713Z,54.19
2022-08-19T02:33:38.436Z,54.18
2022-08-19T02:36:42.701Z,54.12
2022-08-19T02:39:45.454Z,54.03
2022-08-19T02:42:50.662Z,54.34
2022-08-19T02:45:55.074Z,54.34
2022-08-19T02:49:03.984Z,54.29
2022-08-19T02:52:07.754Z,54.33
2022-08-19T02:55:11.520Z,54.12
2022-08-19T02:58:17.951Z,54.00
2022-08-19T03:01:27.180Z,54.10
2022-08-19T03:04:31.524Z,54.27
2022-08-19T03:07:35.303Z,54.09
2022-08-19T03:10:44.998Z,54.21
2022-08-19T03:13:51.774Z,54.28
2022-08-19T03:16:55.546Z,54.27
2022-08-19T03:19:59.506Z,54.07
2022-08-19T03:23:03.295Z,54.13
2022-08-19T03:26:15.966Z,54.36
2022-08-19T03:29:30.678Z,54.18
2022-08-19T03:32:34.898Z,54.26
2022-08-19T03:35:38.708Z,54.17
2022-08-19T03:38:46.078Z,54.30
2022-08-19T03:42:29.243Z,54.08
2022-08-19T03:45:17.367Z,54.43
2022-08-19T03:48:21.078Z,54.22
2022-08-19T03:51:30.738Z,54.21
2022-08-19T03:54:35.212Z,54.53
2022-08-19T03:57:38.942Z,54.42
2022-08-19T04:00:45.547Z,54.21
2022-08-19T04:03:50.282Z,54.30
2022-08-19T04:06:54.564Z,54.34
2022-08-19T04:09:58.263Z,54.13
2022-08-19T04:13:01.949Z,54.02
2022-08-19T04:16:08.288Z,54.36
2022-08-19T04:19:12.289Z,54.11
2022-08-19T04:22:16.335Z,54.33
2022-08-19T04:25:20.062Z,54.21
2022-08-19T04:28:24.800Z,54.39
2022-08-19T04:31:32.446Z,54.37
2022-08-19T04:34:36.126Z,54.00
2022-08-19T04:37:59.794Z,54.40
2022-08-19T04:41:23.045Z,54.36
2022-08-19T04:44:27.502Z,54.36
2022-08-19T04:47:48.123Z,54.23
2022-08-19T04:50:59.550Z,54.30
2022-08-19T04:54:04.723Z,54.33
2022-08-19T04:57:10.935Z,54.29
2022-08-19T05:00:15.483Z,54.02
2022-08-19T05:03:20.706Z,54.13
2022-08-19T05:06:25.846Z,54.37
2022-08-19T05:09:33.110Z,54.35
2022-08-19T05:12:53.947Z,54.15
2022-08-19T05:15:59.490Z,54.51
2022-08-19T05:19:22.274Z,54.26
2022-08-19T05:22:36.644Z,54.22
2022-08-19T05:25:42.083Z,54.46
2022-08-19T05:28:46.043Z,53.93
2022-08-19T05:31:51.484Z,54.38
2022-08-19T05:34:56.836Z,54.39
2022-08-19T05:38:00.546Z,54.48
2022-08-19T05:41:09.467Z,54.49
2022-08-19T05:44:13.188Z,53.95
2022-08-19T05:47:19.814Z,54.07
2022-08-19T05:50:25.161Z,54.42
2022-08-19T05:53:28.902Z,54.42
2022-08-19T05:56:33.219Z,54.34
2022-08-19T05:59:37.408Z,54.20
2022-08-19T06:02:43.659Z,54.33
2022-08-19T06:05:51.651Z,53.97
2022-08-19T06:08:55.962Z,54.11
2022-08-19T06:12:03.503Z,54.01
2022-08-19T06:15:11.230Z,53.97
2022-08-19T06:18:15.575Z,54.05
2022-08-19T06:21:22.040Z,54.08
2022-08-19T06:24:27.653Z,54.34
2022-08-19T06:27:32.931Z,53.88
2022-08-19T06:30:37.986Z,53.90
2022-08-19T06:33:41.903Z,54.23
2022-08-19T06:36:49.753Z,53.92
2022-08-19T06:39:53.755Z,54.35
2022-08-19T06:43:00.045Z,54.33
2022-08-19T06:46:05.220Z,54.05
2022-08-19T06:49:11.252Z,54.01
2022-08-19T06:52:17.001Z,54.02
2022-08-19T06:55:20.820Z,54.24
2022-08-19T06:58:24.528Z,54.39
2022-08-19T07:01:28.943Z,54.35
2022-08-19T07:04:33.750Z,54.02
2022-08-19T07:07:38.879Z,53.94
2022-08-19T07:10:47.803Z,54.00
2022-08-19T07:13:52.177Z,53.87
2022-08-19T07:16:59.083Z,54.15
2022-08-19T07:20:06.768Z,54.14
2022-08-19T07:23:16.227Z,54.06
2022-08-19T07:26:27.817Z,54.04
2022-08-19T07:29:34.028Z,54.25
2022-08-19T07:32:39.169Z,53.92
2022-08-19T07:35:43.091Z,53.90
2022-08-19T07:38:51.570Z,54.20
2022-08-19T07:41:58.660Z,54.05
2022-08-19T07:45:02.463Z,53.94
2022-08-19T07:48:06.566Z,54.34
2022-08-19T07:51:14.358Z,54.49
2022-08-19T07:54:23.410Z,54.69
2022-08-19T07:57:27.185Z,54.86
2022-08-19T08:00:31.043Z,54.83
2022-08-19T08:03:52.017Z,54.81
2022-08-19T08:07:13.511Z,54.76
2022-08-19T08:10:20.541Z,54.95
2022-08-19T08:13:24.911Z,54.77
2022-08-19T08:16:30.950Z,55.03
2022-08-19T08:19:35.187Z,55.04
2022-08-19T08:22:56.788Z,54.82
2022-08-19T08:26:03.148Z,54.92
2022-08-19T08:29:12.853Z,54.71
2022-08-19T08:32:16.843Z,55.08
2022-08-19T08:35:23.149Z,54.70
2022-08-19T08:38:26.888Z,54.81
2022-08-19T08:41:42.681Z,54.92
2022-08-19T08:48:21.998Z,54.90
2022-08-19T08:51:35.168Z,54.82
2022-08-19T08:54:55.055Z,54.63
2022-08-19T08:58:03.944Z,54.49
2022-08-19T09:01:07.945Z,54.49
2022-08-19T09:04:14.534Z,54.40
2022-08-19T09:07:35.268Z,54.27
2022-08-19T09:10:45.904Z,54.12
2022-08-19T09:14:04.482Z,54.15
2022-08-19T09:17:09.061Z,54.15
2022-08-19T09:20:20.299Z,54.06
2022-08-19T09:23:27.008Z,54.26
2022-08-19T09:26:47.425Z,54.38
2022-08-19T09:29:56.651Z,54.34
2022-08-19T09:33:01.015Z,54.33
2022-08-19T09:36:09.387Z,54.17
2022-08-19T09:39:16.309Z,54.16
2022-08-19T09:42:30.466Z,54.23
2022-08-19T09:45:40.709Z,54.26
2022-08-19T09:48:45.649Z,53.97
2022-08-19T09:51:52.581Z,54.37
2022-08-19T09:54:56.809Z,53.92
2022-08-19T09:58:02.200Z,54.36
2022-08-19T10:01:09.564Z,53.99
2022-08-19T10:04:19.835Z,54.24
2022-08-19T10:07:28.990Z,54.18
2022-08-19T10:10:40.164Z,54.10
2022-08-19T10:13:47.915Z,54.42
2022-08-19T10:16:53.267Z,54.35
2022-08-19T10:19:57.053Z,54.33
2022-08-19T10:23:01.280Z,54.33
2022-08-19T10:26:07.038Z,54.41
2022-08-19T10:29:11.493Z,54.69
2022-08-19T10:32:16.947Z,54.44
2022-08-19T10:35:21.845Z,53.95
2022-08-19T10:38:31.517Z,54.19
2022-08-19T10:41:38.480Z,54.31
2022-08-19T10:44:43.729Z,54.23
2022-08-19T10:47:48.898Z,54.07
2022-08-19T10:51:10.143Z,53.99
2022-08-19T10:54:14.137Z,54.20
2022-08-19T10:57:16.944Z,54.30
2022-08-19T11:00:21.843Z,54.26
2022-08-19T11:03:28.766Z,54.17
2022-08-19T11:06:34.061Z,54.06
2022-08-19T11:09:41.758Z,54.27
2022-08-19T11:12:47.416Z,54.13
2022-08-19T11:16:00.156Z,53.99
2022-08-19T11:19:09.743Z,54.26
2022-08-19T11:22:16.136Z,53.88
2022-08-19T11:25:23.336Z,54.00
2022-08-19T11:28:27.139Z,54.03
2022-08-19T11:31:34.350Z,53.77
2022-08-19T11:34:39.812Z,53.63
2022-08-19T11:37:43.581Z,53.62
2022-08-19T11:40:47.330Z,53.51
2022-08-19T11:43:53.365Z,53.49
2022-08-19T11:46:57.122Z,53.59
2022-08-19T11:50:02.165Z,53.82
2022-08-19T11:53:05.914Z,53.71
2022-08-19T11:56:14.431Z,53.82
2022-08-19T11:59:18.219Z,53.46
2022-08-19T12:02:22.733Z,53.75
2022-08-19T12:05:27.860Z,53.70
2022-08-19T12:08:31.950Z,53.83
2022-08-19T12:11:35.896Z,53.70
2022-08-19T12:14:40.043Z,53.53
2022-08-19T12:17:44.358Z,53.57
2022-08-19T12:20:49.527Z,53.56
2022-08-19T12:23:55.775Z,53.74
2022-08-19T12:27:03.104Z,53.31
2022-08-19T12:30:10.593Z,53.50
2022-08-19T12:33:14.967Z,53.55
2022-08-19T12:36:20.741Z,53.59
2022-08-19T12:39:24.683Z,53.55
2022-08-19T12:42:28.875Z,53.54
2022-08-19T12:45:32.655Z,53.34
2022-08-19T12:48:38.287Z,53.28
2022-08-19T12:51:45.189Z,53.34
2022-08-19T12:54:49.221Z,53.33
2022-08-19T12:57:58.057Z,53.22
2022-08-19T13:01:01.928Z,53.14
2022-08-19T13:04:05.957Z,53.30
2022-08-19T13:07:11.073Z,53.22
2022-08-19T13:10:18.993Z,53.07
2022-08-19T13:13:22.767Z,53.30
2022-08-19T13:16:28.626Z,53.44
2022-08-19T13:19:32.624Z,53.08
2022-08-19T13:22:37.972Z,53.14
2022-08-19T13:25:41.728Z,53.17
2022-08-19T13:29:04.815Z,53.13
2022-08-19T13:32:26.455Z,53.16
2022-08-19T13:35:30.267Z,53.18
2022-08-19T13:38:36.033Z,53.00
2022-08-19T13:41:46.526Z,52.98
2022-08-19T13:44:50.344Z,52.84
2022-08-19T13:47:59.515Z,52.85
2022-08-19T13:51:07.292Z,52.90
2022-08-19T13:54:13.348Z,52.87
2022-08-19T13:57:17.123Z,52.88
2022-08-19T14:00:21.829Z,53.00
2022-08-19T14:03:25.679Z,53.28
2022-08-19T14:06:29.536Z,53.07
2022-08-19T14:09:34.711Z,53.21
2022-08-19T14:12:38.837Z,53.25
2022-08-19T14:15:42.748Z,53.36
2022-08-19T14:18:47.158Z,53.47
2022-08-19T14:21:50.939Z,53.58
2022-08-19T14:24:56.169Z,53.59
2022-08-19T14:28:00.467Z,53.73
2022-08-19T14:31:04.179Z,53.47
2022-08-19T14:34:08.018Z,53.69
2022-08-19T14:37:13.025Z,53.55
2022-08-19T14:40:22.218Z,53.49
2022-08-19T14:43:25.946Z,53.66
2022-08-19T14:46:30.660Z,53.61
2022-08-19T14:49:35.289Z,53.60
2022-08-19T14:52:48.840Z,53.57
2022-08-19T14:55:54.063Z,53.46
2022-08-19T14:59:00.314Z,53.72
2022-08-19T15:02:33.642Z,53.81
2022-08-19T15:05:30.703Z,53.59
2022-08-19T15:08:37.914Z,53.63
2022-08-19T15:11:44.519Z,53.71
2022-08-19T15:14:51.123Z,53.64
2022-08-19T15:18:03.199Z,53.60
2022-08-19T15:21:08.129Z,53.66
2022-08-19T15:24:12.221Z,53.37
2022-08-19T15:27:17.398Z,53.52
2022-08-19T15:30:24.558Z,53.43
2022-08-19T15:33:28.488Z,53.54
2022-08-19T15:36:32.614Z,53.38
2022-08-19T15:39:37.051Z,53.45
2022-08-19T15:42:43.614Z,53.62
2022-08-19T15:45:49.406Z,53.40
2022-08-19T15:48:57.222Z,53.60
2022-08-19T15:52:03.881Z,53.53
2022-08-19T15:55:08.479Z,53.48
2022-08-19T15:58:38.531Z,53.71
2022-08-19T16:01:59.629Z,53.49
2022-08-19T16:05:21.381Z,53.45
2022-08-19T16:08:25.308Z,53.63
2022-08-19T16:11:31.400Z,53.48
2022-08-19T16:14:38.153Z,53.62
2022-08-19T16:17:42.358Z,53.46
2022-08-19T16:20:46.693Z,53.73
2022-08-19T16:23:51.215Z,53.62
2022-08-19T16:26:56.012Z,53.82
2022-08-19T16:30:01.348Z,53.67
2022-08-19T16:33:05.424Z,53.43
2022-08-19T16:36:10.253Z,53.82
2022-08-19T16:39:16.751Z,53.80
2022-08-19T16:42:20.887Z,53.64
2022-08-19T16:45:26.523Z,53.70
2022-08-19T16:48:32.918Z,53.56
2022-08-19T16:51:36.792Z,53.49
2022-08-19T16:54:40.644Z,53.58
2022-08-19T16:57:47.219Z,53.63
2022-08-19T17:00:53.432Z,53.65
2022-08-19T17:03:58.497Z,53.72
2022-08-19T17:07:03.261Z,53.67
2022-08-19T17:10:07.862Z,53.71
2022-08-19T17:13:11.745Z,53.52
2022-08-19T17:16:17.557Z,53.62
2022-08-19T17:19:21.315Z,53.62
2022-08-19T17:22:25.206Z,53.86
2022-08-19T17:25:31.584Z,53.68
2022-08-19T17:28:35.510Z,53.52
2022-08-19T17:31:40.760Z,53.74
2022-08-19T17:34:44.982Z,53.87
2022-08-19T17:37:51.549Z,53.60
2022-08-19T17:40:58.291Z,53.78
2022-08-19T17:44:03.779Z,53.46
2022-08-19T17:47:09.280Z,53.51
2022-08-19T17:50:14.133Z,53.25
2022-08-19T17:53:17.923Z,53.61
2022-08-19T17:56:22.178Z,53.65
2022-08-19T17:59:28.500Z,53.62
2022-08-19T18:02:35.645Z,53.65
2022-08-19T18:05:43.484Z,53.47
2022-08-19T18:08:49.083Z,53.73
2022-08-19T18:11:55.020Z,53.87
2022-08-19T18:15:00.249Z,53.63
2022-08-19T18:18:15.016Z,53.71
2022-08-19T18:21:19.869Z,53.87
2022-08-19T18:24:23.784Z,53.73
2022-08-19T18:27:28.856Z,53.96
2022-08-19T18:30:34.392Z,53.96
2022-08-19T18:33:44.234Z,53.91
2022-08-19T18:36:53.887Z,54.03
2022-08-19T18:40:15.673Z,54.10
2022-08-19T18:43:37.136Z,53.85
2022-08-19T18:46:58.750Z,54.02
2022-08-19T18:50:08.363Z,54.02
2022-08-19T18:53:16.222Z,53.99
2022-08-19T18:56:23.938Z,54.05
2022-08-19T18:59:29.637Z,53.99
2022-08-19T19:02:39.669Z,53.90
2022-08-19T19:05:45.429Z,53.82
2022-08-19T19:08:50.266Z,54.07
2022-08-19T19:11:56.538Z,53.95
2022-08-19T19:15:05.557Z,53.99
2022-08-19T19:18:09.342Z,54.24
2022-08-19T19:21:14.532Z,53.91
2022-08-19T19:24:21.527Z,54.06
2022-08-19T19:27:25.346Z,54.06
2022-08-19T19:30:30.873Z,54.23
2022-08-19T19:33:34.615Z,54.04
2022-08-19T19:36:40.126Z,53.78
2022-08-19T19:39:46.138Z,53.87
2022-08-19T19:42:51.969Z,53.92
2022-08-19T19:45:55.640Z,54.22
2022-08-19T19:49:00.308Z,54.12
2022-08-19T19:52:07.629Z,54.13
2022-08-19T19:55:18.950Z,54.14
2022-08-19T19:58:28.495Z,53.94
2022-08-19T20:01:32.899Z,53.85
2022-08-19T20:04:37.501Z,54.00
2022-08-19T20:08:00.388Z,53.98
2022-08-19T20:11:07.545Z,54.01
2022-08-19T20:14:14.555Z,54.02
2022-08-19T20:17:20.684Z,53.77
2022-08-19T20:20:24.929Z,54.04
2022-08-19T20:23:31.148Z,53.83
2022-08-19T20:26:35.815Z,53.94
2022-08-19T20:29:41.733Z,53.87
2022-08-19T20:32:50.036Z,54.07
2022-08-19T20:35:54.260Z,53.76
2022-08-19T20:38:59.699Z,53.90
2022-08-19T20:42:03.480Z,54.07
2022-08-19T20:45:18.187Z,53.99
2022-08-19T20:48:32.656Z,53.59
2022-08-19T20:51:36.579Z,53.60
2022-08-19T20:54:41.796Z,53.85
2022-08-19T20:57:46.731Z,53.71
2022-08-19T21:00:51.467Z,53.97
2022-08-19T21:03:55.305Z,54.10
2022-08-19T21:06:59.133Z,53.99
2022-08-19T21:10:05.261Z,53.88
2022-08-19T21:13:09.173Z,54.08
2022-08-19T21:16:12.963Z,54.15
2022-08-19T21:19:19.871Z,54.01
2022-08-19T21:22:25.833Z,53.88
2022-08-19T21:25:31.546Z,53.79
2022-08-19T21:28:36.490Z,53.86
2022-08-19T21:31:41.060Z,53.81
2022-08-19T21:34:47.025Z,54.12
2022-08-19T21:37:51.492Z,53.81
2022-08-19T21:40:57.433Z,53.74
2022-08-19T21:44:02.019Z,53.76
2022-08-19T21:47:07.274Z,53.62
2022-08-19T21:50:15.121Z,54.03
2022-08-19T21:53:22.865Z,53.81
2022-08-19T21:56:28.797Z,53.70
2022-08-19T21:59:33.121Z,53.95
2022-08-19T22:02:38.420Z,53.98
2022-08-19T22:05:43.672Z,53.54
2022-08-19T22:08:47.836Z,53.60
2022-08-19T22:11:53.014Z,53.95
2022-08-19T22:14:57.894Z,54.15
2022-08-19T22:18:02.345Z,53.70
2022-08-19T22:21:11.245Z,54.05
2022-08-19T22:24:17.382Z,53.66
2022-08-19T22:27:23.375Z,53.49
2022-08-19T22:30:28.010Z,53.88
2022-08-19T22:33:38.663Z,53.54
2022-08-19T22:36:43.357Z,53.79
2022-08-19T22:39:48.179Z,53.59
2022-08-19T22:43:02.332Z,53.54
2022-08-19T22:46:17.607Z,53.69
2022-08-19T22:49:22.368Z,53.39
2022-08-19T22:52:28.110Z,53.69
2022-08-19T22:55:32.913Z,53.66
2022-08-19T22:58:40.761Z,53.92
2022-08-19T23:01:46.300Z,54.06
2022-08-19T23:04:50.414Z,53.78
2022-08-19T23:07:58.794Z,53.93
2022-08-19T23:11:03.716Z,53.67
2022-08-19T23:14:09.469Z,53.78
2022-08-19T23:17:14.124Z,53.62
2022-08-19T23:20:19.622Z,54.10
2022-08-19T23:23:24.913Z,53.70
2022-08-19T23:26:35.199Z,54.17
2022-08-19T23:29:58.475Z,53.86
2022-08-19T23:33:12.682Z,54.20
2022-08-19T23:36:18.815Z,53.66
2022-08-19T23:39:23.449Z,53.88
2022-08-19T23:42:28.834Z,53.74
2022-08-19T23:45:34.542Z,53.98
2022-08-19T23:48:39.782Z,53.93
2022-08-19T23:51:45.786Z,54.01
2022-08-19T23:54:50.376Z,53.94
2022-08-19T23:57:54.359Z,53.82
